Time;durP1;ratioP1;P1;durP2;ratioP2;P2;SDS_P1;SDS_P2;PMS_P1;PMS_P2;Temp;Humidity;BMP_temperature;BMP_pressure;BME280_temperature;BME280_humidity;BME280_pressure;Samples;Min_cycle;Max_cycle;Signal;HPM_P1;HPM_P2
2022/03/31 00:00:59;;;;;;;31.02;10.40;;;;;;;8.88;54.46;92442.94;5113018;28;20048;-49
2022/03/31 00:03:24;;;;;;;21.77;9.93;;;;;;;8.79;55.23;92459.34;5113360;28;20024;-46
2022/03/31 00:05:50;;;;;;;24.27;9.07;;;;;;;8.64;55.77;92448.47;5113440;28;20020;-46
2022/03/31 00:08:17;;;;;;;15.27;8.40;;;;;;;8.74;55.28;92438.28;5113275;28;20412;-46
2022/03/31 00:10:50;;;;;;;16.35;8.75;;;;;;;8.72;55.04;92422.34;5113043;28;20080;-48
2022/03/31 00:13:21;;;;;;;20.15;9.60;;;;;;;8.70;55.40;92449.69;5112869;28;20031;-51
2022/03/31 00:15:47;;;;;;;16.63;8.98;;;;;;;8.84;54.56;92452.88;5112927;28;20030;-48
2022/03/31 00:18:14;;;;;;;21.60;10.75;;;;;;;8.67;56.17;92455.56;5095945;28;20028;-50
2022/03/31 00:20:40;;;;;;;31.85;10.77;;;;;;;8.50;55.62;92428.72;5092723;28;20093;-51
2022/03/31 00:23:06;;;;;;;22.35;8.93;;;;;;;8.73;55.40;92445.81;5092634;28;20481;-48
2022/03/31 00:25:32;;;;;;;19.38;8.43;;;;;;;8.52;54.83;92453.66;5092589;28;20034;-48
2022/03/31 00:27:57;;;;;;;12.75;6.18;;;;;;;8.56;54.15;92451.25;5092266;28;20020;-47
2022/03/31 00:30:24;;;;;;;10.68;5.68;;;;;;;8.63;53.35;92447.72;5092299;28;20070;-49
2022/03/31 00:32:49;;;;;;;11.38;5.35;;;;;;;8.74;53.11;92450.03;5092424;28;20028;-49
2022/03/31 00:35:15;;;;;;;13.25;5.50;;;;;;;9.02;52.21;92435.13;5092395;28;20031;-50
2022/03/31 00:37:42;;;;;;;18.10;5.50;;;;;;;9.11;53.27;92449.03;5092138;28;20024;-48
2022/03/31 00:40:09;;;;;;;15.20;5.72;;;;;;;9.18;52.68;92459.22;5092366;28;20089;-47
2022/03/31 00:42:45;;;;;;;12.57;5.40;;;;;;;9.21;52.78;92459.38;5092002;28;20036;-48
2022/03/31 00:45:15;;;;;;;16.25;5.28;;;;;;;9.34;51.76;92454.31;5091985;28;20028;-48
2022/03/31 00:47:41;;;;;;;15.13;5.13;;;;;;;9.44;51.47;92454.44;5091945;28;20052;-48
2022/03/31 00:50:08;;;;;;;17.70;5.38;;;;;;;9.46;51.51;92462.84;5092130;28;20034;-47
2022/03/31 00:52:33;;;;;;;17.00;6.85;;;;;;;9.52;51.29;92457.84;5091956;28;20414;-48
2022/03/31 00:54:59;;;;;;;12.85;6.20;;;;;;;9.66;50.88;92448.69;5091291;28;20032;-50
2022/03/31 00:57:24;;;;;;;12.88;5.90;;;;;;;9.65;52.22;92449.25;5091373;28;20031;-50
2022/03/31 00:59:50;;;;;;;11.77;5.68;;;;;;;9.71;51.87;92455.97;5091573;28;20024;-49
2022/03/31 01:02:15;;;;;;;14.18;5.80;;;;;;;9.66;52.68;92461.72;5091598;28;20026;-48
2022/03/31 01:04:40;;;;;;;16.02;5.55;;;;;;;9.46;52.60;92462.84;5091863;28;20035;-49
2022/03/31 01:07:06;;;;;;;10.15;5.82;;;;;;;9.48;53.03;92465.78;5091475;28;20055;-48
2022/03/31 01:09:32;;;;;;;16.73;6.88;;;;;;;9.57;52.74;92463.09;5091470;28;20077;-49
2022/03/31 01:12:00;;;;;;;17.27;6.30;;;;;;;9.69;52.60;92455.09;5091788;28;20481;-50
2022/03/31 01:14:25;;;;;;;13.48;6.45;;;;;;;9.87;51.26;92448.28;5107566;28;20023;-49
2022/03/31 01:16:51;;;;;;;13.38;5.95;;;;;;;9.93;51.16;92429.47;5112034;28;20110;-47
2022/03/31 01:19:17;;;;;;;16.13;6.80;;;;;;;9.96;50.96;92427.59;5111664;28;20032;-47
2022/03/31 01:21:43;;;;;;;12.98;5.50;;;;;;;9.83;51.12;92390.06;5111945;27;20034;-48
2022/03/31 01:24:10;;;;;;;17.33;7.80;;;;;;;9.80;51.40;92393.97;5111665;28;20620;-47
2022/03/31 01:26:38;;;;;;;18.77;8.63;;;;;;;10.01;52.00;92432.13;5111799;28;20054;-46
2022/03/31 01:29:04;;;;;;;18.75;6.85;;;;;;;9.81;51.24;92392.66;5111764;27;20042;-47
2022/03/31 01:31:30;;;;;;;18.80;6.03;;;;;;;10.12;50.86;92428.88;5111473;28;20096;-46
2022/03/31 01:33:57;;;;;;;14.60;5.82;;;;;;;10.18;50.39;92445.94;5111338;28;20506;-47
2022/03/31 01:36:23;;;;;;;18.15;6.57;;;;;;;10.22;51.31;92443.50;5111380;28;20055;-46
2022/03/31 01:38:48;;;;;;;13.80;6.25;;;;;;;10.21;51.03;92448.28;5111584;28;20103;-45
2022/03/31 01:41:14;;;;;;;17.80;5.90;;;;;;;10.32;50.35;92445.00;5111537;28;20038;-48
2022/03/31 01:43:39;;;;;;;13.65;5.47;;;;;;;10.50;50.11;92429.16;5111238;28;20027;-46
2022/03/31 01:46:07;;;;;;;15.38;5.68;;;;;;;10.51;49.92;92428.56;5111116;28;20032;-47
2022/03/31 01:48:33;;;;;;;23.67;6.00;;;;;;;10.51;50.70;92412.00;5111480;28;20104;-46
2022/03/31 01:50:59;;;;;;;14.35;6.07;;;;;;;10.46;50.43;92412.97;5111414;28;20462;-47
2022/03/31 01:53:24;;;;;;;13.18;5.07;;;;;;;10.48;50.51;92418.66;5111212;28;20051;-46
2022/03/31 01:55:49;;;;;;;12.93;6.07;;;;;;;10.54;50.63;92424.66;5111058;28;20531;-47
2022/03/31 01:58:15;;;;;;;11.52;4.85;;;;;;;10.57;50.36;92401.41;5110625;28;20020;-48
2022/03/31 02:00:40;;;;;;;12.48;5.93;;;;;;;10.60;50.18;92407.84;5110851;28;20051;-46
2022/03/31 02:03:06;;;;;;;12.23;5.47;;;;;;;10.69;50.40;92423.72;5110850;28;20026;-47
2022/03/31 02:05:31;;;;;;;12.32;5.35;;;;;;;10.65;49.92;92404.78;5110727;27;20024;-47
2022/03/31 02:07:57;;;;;;;15.18;5.18;;;;;;;10.72;50.04;92397.00;5110378;28;20074;-46
2022/03/31 02:10:25;;;;;;;20.27;5.90;;;;;;;10.71;50.31;92409.31;5096667;28;20123;-47
2022/03/31 02:12:51;;;;;;;15.32;5.93;;;;;;;10.68;50.15;92416.00;5090489;28;20103;-48
2022/03/31 02:15:16;;;;;;;11.15;5.15;;;;;;;10.63;49.97;92398.41;5090603;28;20042;-47
2022/03/31 02:17:42;;;;;;;11.98;5.38;;;;;;;10.77;50.01;92407.03;5090453;28;20050;-45
2022/03/31 02:20:09;;;;;;;13.65;5.05;;;;;;;10.79;49.47;92382.31;5090318;28;20081;-49
2022/03/31 02:22:34;;;;;;;11.80;5.22;;;;;;;10.79;49.61;92394.09;5090251;28;20028;-46
2022/03/31 02:25:00;;;;;;;11.35;5.68;;;;;;;10.72;49.86;92403.22;5090381;28;20031;-45
2022/03/31 02:27:25;;;;;;;9.07;4.78;;;;;;;10.64;49.98;92386.78;5090473;28;20088;-47
2022/03/31 02:29:51;;;;;;;13.95;5.47;;;;;;;10.68;50.14;92394.63;5090569;28;20504;-45
2022/03/31 02:32:16;;;;;;;15.50;6.00;;;;;;;10.54;50.76;92407.38;5090074;28;20032;-45
2022/03/31 02:34:42;;;;;;;14.80;5.57;;;;;;;10.45;50.51;92406.03;5090185;28;20028;-45
2022/03/31 02:37:07;;;;;;;11.88;5.32;;;;;;;10.52;50.50;92398.94;5090528;28;20028;-49
2022/03/31 02:39:33;;;;;;;13.40;5.32;;;;;;;10.56;50.15;92380.66;5090060;28;20024;-49
2022/03/31 02:42:00;;;;;;;9.35;5.10;;;;;;;10.24;50.70;92358.88;5090223;28;20031;-50
2022/03/31 02:44:26;;;;;;;18.23;5.57;;;;;;;10.18;51.06;92347.34;5090314;28;20028;-50
2022/03/31 02:46:51;;;;;;;22.88;6.68;;;;;;;10.15;50.87;92351.25;5090416;28;20050;-50
2022/03/31 02:49:17;;;;;;;14.52;5.32;;;;;;;10.39;51.03;92364.16;5090323;28;20028;-49
2022/03/31 02:51:43;;;;;;;15.82;5.22;;;;;;;10.44;50.91;92373.47;5090038;28;20028;-51
2022/03/31 02:56:52;;;;;;;19.33;5.95;;;;;;;10.57;50.08;92382.09;5090374;28;20112;-46
2022/03/31 02:59:17;;;;;;;13.43;5.30;;;;;;;10.57;49.95;92389.66;5106298;28;20489;-47
2022/03/31 03:01:43;;;;;;;13.80;5.25;;;;;;;10.74;49.45;92383.34;5110185;28;20059;-47
2022/03/31 03:04:09;;;;;;;17.80;5.85;;;;;;;10.73;49.44;92370.84;5110311;28;20031;-48
2022/03/31 03:06:35;;;;;;;22.75;6.53;;;;;;;10.70;50.44;92380.28;5096678;28;20065;-49
2022/03/31 03:09:04;;;;;;;16.30;6.10;;;;;;;10.65;50.12;92368.19;5089970;28;20028;-46
2022/03/31 03:11:30;;;;;;;16.20;5.30;;;;;;;10.63;49.54;92368.75;5089876;28;20032;-46
2022/03/31 03:13:58;;;;;;;15.52;5.15;;;;;;;10.60;49.45;92371.94;5090038;28;20085;-46
2022/03/31 03:16:25;;;;;;;9.82;5.63;;;;;;;10.68;49.05;92367.78;5089790;28;20481;-49
2022/03/31 03:18:53;;;;;;;14.75;5.03;;;;;;;10.73;49.06;92370.84;5092687;28;20036;-46
2022/03/31 03:21:19;;;;;;;12.57;4.23;;;;;;;10.73;49.26;92365.31;5093907;28;20107;-47
2022/03/31 03:23:45;;;;;;;18.10;5.97;;;;;;;10.84;48.66;92356.50;5093819;28;20109;-48
2022/03/31 03:26:10;;;;;;;11.48;4.75;;;;;;;10.77;48.63;92357.34;5093835;28;20076;-44
2022/03/31 03:28:36;;;;;;;15.60;5.13;;;;;;;10.79;49.00;92363.00;5093378;28;20020;-45
2022/03/31 03:31:03;;;;;;;15.02;5.13;;;;;;;10.73;49.04;92359.78;5093522;28;20024;-43
2022/03/31 03:33:29;;;;;;;10.88;4.97;;;;;;;10.61;49.89;92371.38;5093214;28;20065;-45
2022/03/31 03:35:54;;;;;;;12.80;5.00;;;;;;;10.42;49.65;92338.19;5093624;28;20113;-44
2022/03/31 03:38:20;;;;;;;18.80;5.20;;;;;;;10.68;49.38;92360.81;5093504;28;20416;-45
2022/03/31 03:40:46;;;;;;;14.98;5.15;;;;;;;10.80;49.08;92358.94;5093503;28;20508;-44
2022/03/31 03:43:12;;;;;;;13.75;4.03;;;;;;;10.85;49.20;92369.72;5093585;28;20664;-44
2022/03/31 03:45:38;;;;;;;17.67;6.35;;;;;;;10.89;49.11;92372.78;5093446;28;20043;-45
2022/03/31 03:48:04;;;;;;;14.90;4.80;;;;;;;10.79;49.83;92374.03;5093218;28;20063;-43
2022/03/31 03:50:30;;;;;;;17.48;5.18;;;;;;;10.87;49.34;92366.38;5093003;28;20028;-43
2022/03/31 03:52:56;;;;;;;14.23;4.95;;;;;;;10.83;49.29;92330.19;5093212;28;20031;-48
2022/03/31 03:55:21;;;;;;;14.50;5.53;;;;;;;10.73;49.85;92321.88;5093015;28;20535;-47
2022/03/31 03:57:47;;;;;;;13.35;4.85;;;;;;;10.84;50.15;92337.91;5096842;28;20031;-48
2022/03/31 04:00:13;;;;;;;14.40;5.68;;;;;;;10.86;49.76;92346.31;5112979;28;20055;-45
2022/03/31 04:02:39;;;;;;;14.23;4.93;;;;;;;10.92;49.73;92340.50;5100984;28;20024;-45
2022/03/31 04:05:05;;;;;;;13.43;4.55;;;;;;;10.94;49.78;92337.91;5093022;28;20027;-43
2022/03/31 04:07:30;;;;;;;12.82;4.78;;;;;;;10.94;50.36;92332.38;5092989;28;20089;-46
2022/03/31 04:09:56;;;;;;;12.35;4.75;;;;;;;11.02;49.81;92328.19;5092700;28;20036;-45
2022/03/31 04:12:22;;;;;;;18.70;4.97;;;;;;;11.09;49.73;92327.31;5092571;28;20027;-45
2022/03/31 04:14:49;;;;;;;17.73;5.55;;;;;;;10.98;49.90;92327.19;5092837;28;20028;-43
2022/03/31 04:17:14;;;;;;;11.20;4.60;;;;;;;10.92;49.78;92335.72;5092841;28;20496;-47
2022/03/31 04:19:40;;;;;;;18.83;4.85;;;;;;;10.87;50.34;92336.03;5092440;28;20056;-45
2022/03/31 04:22:05;;;;;;;17.98;5.57;;;;;;;10.94;50.15;92344.16;5092725;28;20020;-43
2022/03/31 04:24:30;;;;;;;17.90;5.15;;;;;;;10.94;50.42;92329.63;5092456;28;20024;-44
2022/03/31 04:26:56;;;;;;;16.05;5.35;;;;;;;10.97;50.08;92334.72;5092607;28;20031;-48
2022/03/31 04:29:26;;;;;;;11.02;4.70;;;;;;;11.02;50.14;92344.03;5091347;28;20024;-44
2022/03/31 04:31:51;;;;;;;14.07;5.35;;;;;;;11.02;50.38;92339.22;5092293;28;20031;-46
2022/03/31 04:34:19;;;;;;;11.77;5.00;;;;;;;11.06;50.69;92330.53;5092065;28;20032;-45
2022/03/31 04:36:45;;;;;;;11.07;4.50;;;;;;;11.11;49.65;92335.75;5092434;28;20088;-45
2022/03/31 04:39:12;;;;;;;24.00;5.40;;;;;;;10.84;50.89;92337.16;5092384;28;20048;-43
2022/03/31 04:41:38;;;;;;;9.00;4.55;;;;;;;10.65;50.99;92335.06;5091970;28;20493;-45
2022/03/31 04:44:03;;;;;;;17.55;5.25;;;;;;;10.68;51.46;92359.50;5092057;28;20080;-41
2022/03/31 04:46:29;;;;;;;16.25;4.68;;;;;;;10.61;51.34;92362.38;5092199;28;20413;-47
2022/03/31 04:48:54;;;;;;;15.68;4.32;;;;;;;10.74;50.70;92364.75;5091911;28;20421;-45
2022/03/31 04:51:20;;;;;;;11.77;5.10;;;;;;;10.75;51.20;92366.19;5092067;28;20028;-46
2022/03/31 04:53:46;;;;;;;20.67;5.63;;;;;;;10.72;52.39;92367.34;5091988;28;20107;-49
2022/03/31 04:56:11;;;;;;;15.90;5.28;;;;;;;10.70;52.45;92374.75;5092081;28;20465;-46
2022/03/31 04:58:37;;;;;;;17.20;5.03;;;;;;;10.70;52.49;92375.47;5092595;28;20036;-50
2022/03/31 05:01:04;;;;;;;16.45;6.05;;;;;;;10.60;55.45;92388.50;5091650;28;20073;-48
2022/03/31 05:03:29;;;;;;;20.85;6.57;;;;;;;10.50;57.15;92399.50;5091870;28;20099;-46
2022/03/31 05:05:55;;;;;;;28.98;7.90;;;;;;;10.25;59.79;92403.72;5091553;28;20055;-45
2022/03/31 05:08:20;;;;;;;18.35;5.80;;;;;;;10.13;61.98;92420.06;5091539;28;20028;-45
2022/03/31 05:10:46;;;;;;;13.63;4.93;;;;;;;10.14;62.85;92420.78;5091477;28;20043;-46
2022/03/31 05:13:12;;;;;;;21.48;6.78;;;;;;;9.89;66.57;92424.38;5091395;28;20032;-48
2022/03/31 05:15:37;;;;;;;16.33;6.03;;;;;;;9.68;69.48;92431.59;5091627;28;20034;-46
2022/03/31 05:18:03;;;;;;;23.48;8.98;;;;;;;9.52;71.92;92430.28;5091393;28;20478;-44
2022/03/31 05:20:29;;;;;;;21.73;8.57;;;;;;;9.42;72.69;92437.72;5091548;28;20062;-44
2022/03/31 05:22:54;;;;;;;21.02;7.40;;;;;;;9.34;73.69;92426.78;5091262;28;20398;-45
2022/03/31 05:25:20;;;;;;;28.67;6.85;;;;;;;9.10;73.93;92400.00;5091194;28;20038;-47
2022/03/31 05:27:48;;;;;;;17.77;6.32;;;;;;;9.02;72.66;92397.31;5091171;28;20111;-44
2022/03/31 05:30:16;;;;;;;26.85;9.45;;;;;;;8.94;74.91;92409.69;5091184;28;20024;-46
2022/03/31 05:32:42;;;;;;;25.05;11.27;;;;;;;8.89;76.19;92405.16;5090980;28;20107;-45
2022/03/31 05:35:08;;;;;;;94.28;68.40;;;;;;;8.93;77.53;92403.47;5090956;28;20056;-45
2022/03/31 05:37:34;;;;;;;21.02;10.23;;;;;;;8.96;77.53;92409.88;5091280;28;20027;-47
2022/03/31 05:40:05;;;;;;;25.60;9.93;;;;;;;9.00;77.74;92412.94;5090947;28;20020;-46
2022/03/31 05:42:32;;;;;;;17.35;8.70;;;;;;;8.96;76.92;92399.59;5089887;28;20028;-47
2022/03/31 05:45:01;;;;;;;19.52;7.03;;;;;;;8.93;78.49;92410.97;5090853;28;20040;-45
2022/03/31 05:47:27;;;;;;;;;;;;;;;8.74;79.13;92408.75;5091322;28;20034;-46
2022/03/31 05:49:53;;;;;;;19.50;7.82;;;;;;;8.74;79.43;92405.25;5090893;28;20371;-45
2022/03/31 05:52:18;;;;;;;27.45;7.57;;;;;;;8.77;79.20;92413.13;5090919;28;20028;-46
2022/03/31 05:54:44;;;;;;;19.20;8.02;;;;;;;8.65;81.35;92414.88;5090805;28;20630;-43
2022/03/31 05:57:10;;;;;;;22.13;10.68;;;;;;;8.74;81.17;92417.00;5090669;28;20024;-44
2022/03/31 05:59:35;;;;;;;28.92;9.85;;;;;;;8.96;80.69;92421.63;5090293;28;20425;-46
2022/03/31 06:02:01;;;;;;;18.80;10.70;;;;;;;8.97;79.71;92425.06;5090448;28;20048;-47
2022/03/31 06:04:27;;;;;;;45.30;22.42;;;;;;;8.87;81.09;92433.25;5090538;28;20394;-48
2022/03/31 06:06:53;;;;;;;25.90;9.80;;;;;;;9.03;79.38;92442.81;5090886;28;20027;-49
2022/03/31 06:09:18;;;;;;;20.60;9.05;;;;;;;9.23;76.98;92430.00;5090726;28;20564;-46
2022/03/31 06:11:44;;;;;;;23.63;9.07;;;;;;;9.15;76.86;92424.56;5090774;28;20040;-45
2022/03/31 06:14:11;;;;;;;25.00;10.20;;;;;;;9.29;78.65;92424.25;5093406;28;20424;-45
2022/03/31 06:16:37;;;;;;;25.45;13.40;;;;;;;9.39;78.60;92417.56;5099246;28;20032;-47
2022/03/31 06:19:03;;;;;;;29.60;9.68;;;;;;;9.54;77.76;92408.41;5100195;28;20054;-44
2022/03/31 06:21:28;;;;;;;22.00;9.00;;;;;;;9.66;78.23;92409.34;5100484;28;20024;-44
2022/03/31 06:23:54;;;;;;;18.33;8.93;;;;;;;9.68;78.37;92399.22;5098404;28;20080;-47
2022/03/31 06:26:19;;;;;;;19.80;7.32;;;;;;;9.65;73.65;92389.34;5110449;28;20028;-47
2022/03/31 06:28:44;;;;;;;15.10;7.25;;;;;;;9.66;72.12;92359.75;5110877;28;20088;-47
2022/03/31 06:31:10;;;;;;;14.05;6.95;;;;;;;9.69;71.48;92370.38;5109546;28;20028;-44
2022/03/31 06:33:37;;;;;;;20.17;6.60;;;;;;;9.77;69.50;92384.06;5110353;28;20038;-46
2022/03/31 06:36:03;;;;;;;20.83;6.32;;;;;;;9.84;69.64;92361.19;5110832;28;20471;-44
2022/03/31 06:38:29;;;;;;;18.63;6.18;;;;;;;9.97;69.98;92357.34;5110682;28;20030;-46
2022/03/31 06:41:06;;;;;;;19.17;5.93;;;;;;;10.08;69.19;92354.81;5110561;28;20413;-47
2022/03/31 06:43:35;;;;;;;13.32;6.05;;;;;;;10.11;70.11;92337.16;5110464;28;20023;-46
2022/03/31 06:46:01;;;;;;;;;;;;;;;10.29;69.78;92338.56;5110943;28;20077;-45
2022/03/31 06:48:26;;;;;;;15.60;5.45;;;;;;;10.38;67.98;92340.63;5110676;28;19916;-46
2022/03/31 06:50:52;;;;;;;17.95;6.10;;;;;;;10.41;68.93;92347.03;5102805;28;20032;-46
2022/03/31 06:53:18;;;;;;;15.82;5.30;;;;;;;10.75;69.40;92351.66;5091626;28;20035;-45
2022/03/31 06:55:45;;;;;;;16.63;5.88;;;;;;;11.10;69.86;92339.13;5094503;28;20024;-43
2022/03/31 06:58:10;;;;;;;13.05;4.93;;;;;;;11.20;69.21;92350.91;5100875;28;20560;-44
2022/03/31 07:00:36;;;;;;;13.90;6.18;;;;;;;11.56;69.30;92361.13;5114423;28;20138;-44
2022/03/31 07:03:01;;;;;;;14.57;6.03;;;;;;;11.55;68.54;92354.88;5114612;28;20024;-44
2022/03/31 07:05:27;;;;;;;21.02;7.57;;;;;;;11.46;70.13;92368.69;5114572;27;20027;-45
2022/03/31 07:07:52;;;;;;;15.75;7.28;;;;;;;11.42;71.08;92382.94;5114665;28;20065;-46
2022/03/31 07:10:18;;;;;;;24.08;9.00;;;;;;;11.70;70.55;92371.19;5114435;28;20404;-45
2022/03/31 07:12:44;;;;;;;15.73;7.30;;;;;;;12.02;68.11;92373.50;5114152;28;20416;-47
2022/03/31 07:15:10;;;;;;;22.38;7.05;;;;;;;12.45;66.92;92379.28;5114195;27;20043;-45
2022/03/31 07:17:36;;;;;;;16.33;6.68;;;;;;;12.74;63.10;92375.09;5114381;28;20040;-45
2022/03/31 07:20:03;;;;;;;24.75;11.00;;;;;;;13.00;63.58;92384.47;5114250;28;20097;-44
2022/03/31 07:22:28;;;;;;;19.50;8.02;;;;;;;13.49;62.48;92372.53;5114246;28;20443;-45
2022/03/31 07:24:54;;;;;;;19.23;7.55;;;;;;;13.83;58.59;92387.19;5114358;28;20015;-47
2022/03/31 07:27:19;;;;;;;11.73;6.00;;;;;;;13.45;58.71;92386.13;5114085;28;20484;-47
2022/03/31 07:29:45;;;;;;;20.40;7.00;;;;;;;13.36;59.28;92383.44;5113874;28;20111;-47
2022/03/31 07:32:10;;;;;;;17.42;5.70;;;;;;;13.54;58.58;92388.13;5113785;27;20024;-47
2022/03/31 07:34:39;;;;;;;17.75;6.00;;;;;;;13.21;57.26;92378.97;5113917;28;20034;-46
2022/03/31 07:37:05;;;;;;;15.73;5.93;;;;;;;13.12;58.07;92379.78;5114015;28;20117;-45
2022/03/31 07:39:31;;;;;;;20.95;6.20;;;;;;;12.81;58.78;92381.78;5113753;28;20061;-45
2022/03/31 07:41:56;;;;;;;18.77;5.72;;;;;;;12.64;59.39;92395.81;5113460;28;20507;-49
2022/03/31 07:44:22;;;;;;;13.18;5.32;;;;;;;12.66;57.68;92376.56;5113840;28;20027;-48
2022/03/31 07:46:47;;;;;;;17.95;5.47;;;;;;;12.47;57.79;92377.38;5108812;28;20032;-50
2022/03/31 07:49:14;;;;;;;26.20;9.40;;;;;;;12.61;58.99;92397.00;5093428;28;20457;-47
2022/03/31 07:51:39;;;;;;;23.63;6.78;;;;;;;12.57;58.65;92394.69;5092911;28;20059;-48
2022/03/31 07:54:05;;;;;;;16.30;6.20;;;;;;;12.60;57.33;92409.41;5093148;28;20030;-47
2022/03/31 07:56:30;;;;;;;23.00;7.03;;;;;;;12.61;57.73;92383.88;5092901;28;20024;-47
2022/03/31 07:58:56;;;;;;;18.00;6.07;;;;;;;12.68;57.96;92391.28;5106514;28;20108;-45
2022/03/31 08:01:21;;;;;;;19.80;5.15;;;;;;;12.56;58.39;92373.81;5113092;28;20436;-46
2022/03/31 08:03:47;;;;;;;18.33;5.93;;;;;;;12.77;56.24;92370.41;5112738;28;20495;-47
2022/03/31 08:06:12;;;;;;;18.65;5.38;;;;;;;12.69;56.02;92370.59;5112753;28;20028;-46
2022/03/31 08:08:38;;;;;;;15.35;5.70;;;;;;;12.68;56.08;92363.59;5112988;28;20127;-50
2022/03/31 08:11:04;;;;;;;17.25;5.30;;;;;;;12.75;56.11;92362.72;5113358;27;20024;-46
2022/03/31 08:13:29;;;;;;;19.98;6.38;;;;;;;12.78;56.30;92374.63;5113163;28;20028;-47
2022/03/31 08:15:56;;;;;;;13.50;5.43;;;;;;;12.98;55.81;92389.13;5112925;28;20481;-49
2022/03/31 08:18:28;;;;;;;21.58;5.93;;;;;;;13.25;57.22;92390.34;5113120;28;20110;-45
2022/03/31 08:20:54;;;;;;;13.50;4.78;;;;;;;13.72;55.31;92363.63;5112964;28;20056;-45
2022/03/31 08:23:20;;;;;;;17.30;5.28;;;;;;;14.12;52.29;92360.66;5113047;28;20407;-45
2022/03/31 08:25:46;;;;;;;22.63;6.65;;;;;;;14.42;53.72;92345.94;5112808;28;20031;-47
2022/03/31 08:28:11;;;;;;;14.80;5.50;;;;;;;14.78;50.49;92358.56;5112574;28;20027;-45
2022/03/31 08:30:36;;;;;;;15.52;5.25;;;;;;;14.76;50.66;92369.56;5112638;28;20059;-47
2022/03/31 08:33:02;;;;;;;14.75;5.72;;;;;;;14.63;50.52;92339.56;5112457;28;20075;-48
2022/03/31 08:35:28;;;;;;;19.65;5.82;;;;;;;14.90;49.79;92391.94;5112825;28;20027;-48
2022/03/31 08:37:54;;;;;;;16.77;5.25;;;;;;;14.77;49.65;92393.22;5112833;28;20036;-46
2022/03/31 08:40:20;;;;;;;16.27;4.90;;;;;;;14.48;50.53;92373.38;5112427;28;20027;-47
2022/03/31 08:42:46;;;;;;;18.63;6.43;;;;;;;14.09;51.40;92370.19;5108897;28;20492;-48
2022/03/31 08:45:14;;;;;;;15.13;5.00;;;;;;;13.56;53.09;92359.78;5092228;28;20550;-50
2022/03/31 08:47:42;;;;;;;15.38;5.15;;;;;;;13.20;53.20;92347.06;5091866;28;20032;-47
2022/03/31 08:50:08;;;;;;;15.93;5.18;;;;;;;13.33;54.37;92370.75;5091892;28;20040;-48
2022/03/31 08:52:34;;;;;;;30.65;6.15;;;;;;;13.45;54.45;92382.63;5091717;28;20520;-48
2022/03/31 08:54:59;;;;;;;16.70;6.65;;;;;;;13.59;53.91;92362.13;5092127;28;20024;-45
2022/03/31 08:57:25;;;;;;;13.75;5.57;;;;;;;13.61;53.78;92375.38;5091119;28;20386;-50
2022/03/31 08:59:51;;;;;;;15.63;5.35;;;;;;;13.99;52.77;92366.75;5111863;28;20499;-47
2022/03/31 09:02:26;;;;;;;13.48;5.22;;;;;;;14.25;51.61;92359.41;5112058;28;20126;-48
2022/03/31 09:05:05;;;;;;;16.42;5.28;;;;;;;14.39;51.05;92343.63;5111993;28;20522;-49
2022/03/31 09:07:31;;;;;;;21.05;5.63;;;;;;;14.52;50.68;92343.06;5111998;28;20028;-47
2022/03/31 09:09:56;;;;;;;13.98;5.03;;;;;;;14.70;49.83;92341.41;5111926;28;20062;-47
2022/03/31 09:12:24;;;;;;;14.00;5.07;;;;;;;14.73;50.33;92342.97;5111820;28;20031;-48
2022/03/31 09:14:49;;;;;;;15.98;5.10;;;;;;;14.74;50.12;92327.03;5111754;28;20599;-47
2022/03/31 09:17:16;;;;;;;10.00;4.78;;;;;;;14.67;49.65;92345.38;5111626;28;20098;-49
2022/03/31 09:19:42;;;;;;;16.67;4.60;;;;;;;14.52;50.83;92340.28;5112034;28;20081;-48
2022/03/31 09:22:08;;;;;;;14.88;4.97;;;;;;;14.52;51.45;92345.84;5111601;28;20035;-47
2022/03/31 09:24:33;;;;;;;31.05;6.30;;;;;;;14.74;52.47;92322.19;5111661;28;20047;-47
2022/03/31 09:27:01;;;;;;;17.52;5.55;;;;;;;14.96;51.26;92323.53;5111597;28;20019;-47
2022/03/31 09:29:29;;;;;;;18.63;6.10;;;;;;;15.10;49.86;92318.81;5111891;28;20054;-47
2022/03/31 09:32:13;;;;;;;20.20;5.28;;;;;;;15.25;48.93;92317.56;5111838;28;20035;-49
2022/03/31 09:34:44;;;;;;;15.57;5.68;;;;;;;15.37;51.31;92303.66;5110145;28;20653;-48
2022/03/31 09:37:10;;;;;;;17.90;5.30;;;;;;;15.75;49.84;92317.00;5111672;28;20031;-48
2022/03/31 09:39:37;;;;;;;20.90;6.38;;;;;;;15.95;48.13;92318.16;5103980;28;20054;-48
2022/03/31 09:42:13;;;;;;;12.93;4.25;;;;;;;16.08;47.19;92308.41;5091148;28;20024;-49
2022/03/31 09:44:39;;;;;;;13.80;4.95;;;;;;;16.21;47.88;92318.88;5090877;28;20027;-50
2022/03/31 09:47:05;;;;;;;13.25;5.43;;;;;;;16.13;47.59;92321.97;5090802;28;20016;-51
2022/03/31 09:49:30;;;;;;;16.42;5.05;;;;;;;15.92;47.18;92308.97;5090992;28;20020;-48
2022/03/31 09:52:01;;;;;;;34.78;9.95;;;;;;;16.04;47.43;92294.28;5090788;28;20026;-49
2022/03/31 09:54:29;;;;;;;17.20;5.45;;;;;;;16.21;47.89;92282.69;5090593;28;20063;-45
2022/03/31 09:56:56;;;;;;;17.10;4.57;;;;;;;16.07;47.23;92299.31;5091055;28;20594;-46
2022/03/31 09:59:28;;;;;;;14.25;4.93;;;;;;;16.23;47.13;92275.16;5107790;28;20103;-50
2022/03/31 10:01:54;;;;;;;22.90;5.97;;;;;;;16.45;46.28;92281.94;5110857;28;20158;-51
2022/03/31 10:04:20;;;;;;;17.38;4.45;;;;;;;16.23;46.74;92275.16;5110710;28;20031;-51
2022/03/31 10:06:47;;;;;;;19.52;5.35;;;;;;;16.50;45.12;92275.25;5111055;28;20233;-46
2022/03/31 10:09:12;;;;;;;16.83;4.32;;;;;;;16.51;45.83;92275.97;5110745;28;20023;-46
2022/03/31 10:11:39;;;;;;;20.98;5.20;;;;;;;16.53;45.38;92278.88;5110803;28;20050;-49
2022/03/31 10:14:36;;;;;;;18.92;5.07;;;;;;;16.35;45.54;92275.09;5109540;28;20532;-48
2022/03/31 10:17:05;;;;;;;15.77;5.13;;;;;;;16.45;45.62;92275.63;5111022;28;20034;-50
2022/03/31 10:19:42;;;;;;;19.48;4.47;;;;;;;16.11;45.93;92271.00;5110961;28;20031;-49
2022/03/31 10:24:41;;;;;;;19.38;5.97;;;;;;;16.15;46.29;92252.44;5110949;28;20040;-47
2022/03/31 10:25:00;;;;;;;22.00;4.80;;;;;;;15.99;46.31;92257.13;5110637;28;20054;-52
2022/03/31 10:27:34;;;;;;;17.30;4.55;;;;;;;15.93;46.77;92257.53;5108619;28;20019;-51
2022/03/31 10:30:12;;;;;;;20.13;5.30;;;;;;;16.25;46.25;92246.69;5110898;28;20523;-48
2022/03/31 10:32:58;;;;;;;16.42;4.38;;;;;;;16.40;46.73;92254.47;5110741;28;20027;-49
2022/03/31 10:35:29;;;;;;;16.98;5.57;;;;;;;16.66;46.21;92237.09;5107259;28;20055;-48
2022/03/31 10:37:55;;;;;;;12.90;5.47;;;;;;;16.94;45.93;92223.91;5090313;28;20035;-49
2022/03/31 10:40:35;;;;;;;17.63;4.90;;;;;;;17.26;44.33;92205.28;5090387;28;20024;-48
2022/03/31 10:43:01;;;;;;;15.32;4.85;;;;;;;17.17;44.49;92192.97;5090484;28;20028;-47
2022/03/31 10:45:42;;;;;;;23.35;4.85;;;;;;;17.36;44.36;92183.47;5090024;28;20032;-47
2022/03/31 10:48:23;;;;;;;18.90;5.13;;;;;;;17.53;44.25;92210.81;5090059;28;20020;-50
2022/03/31 10:51:07;;;;;;;16.73;4.60;;;;;;;17.44;44.28;92208.97;5090411;28;20023;-51
2022/03/31 10:53:39;;;;;;;20.70;4.80;;;;;;;17.52;44.08;92195.41;5090196;28;20032;-47
2022/03/31 10:56:24;;;;;;;30.65;11.77;;;;;;;17.40;44.95;92201.13;5090363;28;20434;-52
2022/03/31 10:58:52;;;;;;;11.57;5.18;;;;;;;17.43;44.90;92190.78;5102397;28;20035;-51
2022/03/31 11:01:19;;;;;;;20.60;5.75;;;;;;;17.42;44.66;92206.78;5110305;28;20048;-49
2022/03/31 11:03:47;;;;;;;20.00;4.95;;;;;;;17.38;44.57;92198.22;5110567;28;20027;-51
2022/03/31 11:06:13;;;;;;;23.03;6.17;;;;;;;17.18;44.35;92177.72;5110607;28;20035;-48
2022/03/31 11:08:47;;;;;;;15.15;4.95;;;;;;;17.23;44.64;92170.25;5110209;28;21012;-46
2022/03/31 11:11:24;;;;;;;23.77;5.43;;;;;;;17.24;45.20;92185.63;5110240;28;20421;-48
2022/03/31 11:13:50;;;;;;;17.52;4.63;;;;;;;17.08;44.85;92171.63;5110404;28;20031;-47
2022/03/31 11:16:16;;;;;;;22.15;5.03;;;;;;;16.96;45.30;92178.66;5110215;28;20539;-52
2022/03/31 11:18:54;;;;;;;25.00;5.88;;;;;;;17.09;45.59;92175.84;5109141;28;20023;-46
2022/03/31 11:21:20;;;;;;;27.80;5.88;;;;;;;17.22;45.57;92183.47;5110397;28;20674;-49
2022/03/31 11:23:47;;;;;;;25.33;5.10;;;;;;;17.21;45.34;92193.22;5108353;28;20024;-50
2022/03/31 11:26:25;;;;;;;18.85;5.15;;;;;;;17.36;44.06;92181.41;5104737;28;20527;-49
2022/03/31 11:28:50;;;;;;;17.43;5.20;;;;;;;17.37;44.40;92182.09;5102728;28;20023;-52